Hauptseite
METAR-TAF:

METAR-TAF

Flughäfen :

Marsa Matruh, Ägypten

Breite: 31-20N, Länge: 027-13E, Höhe: 25 m

Beobachtung

Neuester Wetterbericht von vor 57 Minuten, um 13:00 UTC
Wind 17 kt aus Ost/Nordost
Temperatur 31°C
Luftfeuchtigkeit 36%
Luftdruck 1009 hPa
Sichtweite: 4000 m
Sand,

METAR: HEMM 231300Z 06017KT 4000 SA NSC 31/14 Q1009 NOSIG

Zeit: 15:57 (13:57 UTC)

Prognose

Neuester Wetterbericht von vor 2 Stunden und 57 Minuten, um 11:00 UTC
Gültige Prognose vom 23 um 12 UTC bis 24 um 18 UTC
Wind 10 kt aus Ost, Böen bis zu 20 kt
Sichtweite 10 km oder mehr
keine Wolken unter 1500 m und keine Kumulonimbus oder Gewitterwolken
Zeitweise
vom 23 um 12 UTC bis 23 um 18 UTC
Sichtweite: 3000 m
Sand
Zeitweise
vom 23 um 12 UTC bis 23 um 15 UTC
Sichtweite: 1200 m

TAF: HEMM 231100Z 2312/2418 10010G20KT CAVOK TEMPO 2312/2318 3000 SA NSC TEMPO 2312/2315 1200

Wetterbeobachtungen und Prognosen von mehr als 4000 Flughäfen (METAR und TAF Bericht).

Die verfügbaren Stationen werden durch gelbe und rote Markierungen auf der Karte dargestellt.

Führen Sie die Maus auf sie, um den Namen der Station zu sehen.

Darauf klicken, um die Beobachtung von Wetterbeobachtungen und Prognosen zu sehen.

Um die Karte zu ändern : klicken Sie auf den grünen Tasten mit einem schwarzen Kreuz Zum Vergrößern, auf den grünen Button mit einem Gedankenstrich zu verkleinern, oder auf die grünen Pfeile für benachbarte Karten.


METAR-TAF: